Airfield :
LOGIN :

Register | Disclaimer

   EN    FR    IT 

 










Legend :    VFR   Marginal VFR   IFR   Intensive IFR   Very Intensive IFR
Visi :
Ceiling :
>= 8 km
>= 3000ft
5 to 8 km
1000 to 3000 ft
1500m to 5 km
500 to 1000 ft
800 to 1500m
200 to 500 ft
< 800m
< 200 ft
Symbols :   Thunderstorms  Fog  Heavy snow  Heavy precipitations  Wind > 20 kt
SIGMETs :     Misc.  Thunderstorms  Icing  Turbulence  Mountain Waves  Volcanic Ashes






- Airport Elevation : 622 ft
- IATA code : BRS


EGGD - Bristol Int.

CURRENT METAR :
  • 211720Z AUTO 03004KT 340V070 9999 NCD 16/12 Q1009

EXPIRED METARs :
  • 211650Z AUTO 04004KT 010V080 9999 NCD 16/12 Q1009
  • 211620Z AUTO 06006KT 9999 NCD 16/12 Q1009
  • 211550Z AUTO 06007KT 9999 NCD 16/12 Q1009
  • 211520Z AUTO 05007KT 360V090 9999 NCD 17/11 Q1009
  • 211450Z AUTO 03005KT 350V070 9999 NCD 17/11 Q1009
  • 211420Z AUTO 03003KT 350V110 9999 NCD 17/11 Q1010
  • 211350Z AUTO 01006KT 330V070 9999 NCD 17/11 Q1010
  • 211320Z AUTO 03007KT 340V080 9999 NCD 17/11 Q1010
  • 211250Z AUTO 02006KT 270V090 9999 FEW030 17/11 Q1010

TAF TAF EGGD
Valid from the 21 at 18:00 until the 22 at 18:00 UTC


211705Z 2118/2218 04006KT 9999 FEW003 SCT025
PROB30
TEMPO 2118/2121 3000 +SHRA TSRAGS BKN014CB
BECMG 2121/2124 26010KT
TEMPO 2121/2212 4500 RA BKN003
PROB30
TEMPO 2121/2208 0300 +RA FG BKN000
PROB30
TEMPO 2212/2218 27015G25KT 3000 +SHRA BKN010CB
ATIS : +44 1275 473 666



MET'MAP, your aeronautical weather chart ! - Copyright ORBIFLY December 2007 - Disclaimer

ORBIFLY MET'MAP TEAM :

Programming & Development : Alexandra Zaïnal
Original concept : Baudouin d'Aumeries
Technical & hardware support : Manuel Goepfert
Assistance : Marc-Olivier Méhu




SOURCES & CREDITS :

   NOAA